Time;durP1;ratioP1;P1;durP2;ratioP2;P2;SDS_P1;SDS_P2;PMS_P1;PMS_P2;Temp;Humidity;BMP_temperature;BMP_pressure;BME280_temperature;BME280_humidity;BME280_pressure;Samples;Min_cycle;Max_cycle;Signal;HPM_P1;HPM_P2
2022/04/28 00:00:02;;;;;;;16.02;8.98;;;14.00;65.80;;;;;;5078437;28;20032;-58
2022/04/28 00:02:28;;;;;;;15.48;9.75;;;14.00;65.80;;;;;;5078335;28;20025;-58
2022/04/28 00:04:55;;;;;;;15.10;9.57;;;13.90;64.80;;;;;;5078070;28;20043;-58
2022/04/28 00:07:21;;;;;;;16.02;9.75;;;14.00;66.10;;;;;;5078421;28;20020;-58
2022/04/28 00:09:47;;;;;;;14.48;10.40;;;14.00;65.60;;;;;;5078025;28;20100;-58
2022/04/28 00:12:12;;;;;;;14.73;10.13;;;14.00;66.30;;;;;;5078207;28;20484;-58
2022/04/28 00:14:38;;;;;;;16.83;10.48;;;13.90;66.90;;;;;;5078043;28;20052;-58
2022/04/28 00:17:04;;;;;;;16.80;9.70;;;13.90;67.10;;;;;;5078125;28;20025;-58
2022/04/28 00:19:30;;;;;;;15.80;9.82;;;13.90;65.30;;;;;;5078141;28;20069;-58
2022/04/28 00:21:56;;;;;;;17.85;9.77;;;13.90;65.50;;;;;;5077884;28;20100;-58
2022/04/28 00:24:22;;;;;;;14.90;10.02;;;13.80;65.70;;;;;;5077778;28;20025;-58
2022/04/28 00:26:47;;;;;;;18.50;10.43;;;13.90;66.20;;;;;;5077982;28;20025;-58
2022/04/28 00:29:13;;;;;;;16.67;10.23;;;13.90;65.80;;;;;;5076825;28;20383;-58
2022/04/28 00:31:39;;;;;;;16.40;10.35;;;13.80;65.40;;;;;;5077932;28;20124;-58
2022/04/28 00:34:06;;;;;;;17.75;9.88;;;13.80;64.70;;;;;;5077528;28;20451;-58
2022/04/28 00:36:31;;;;;;;15.27;9.48;;;13.80;65.70;;;;;;5077901;28;20169;-58
2022/04/28 00:38:57;;;;;;;18.27;9.73;;;13.80;65.50;;;;;;5077768;28;20530;-58
2022/04/28 00:41:23;;;;;;;15.77;10.40;;;13.90;64.40;;;;;;5077666;28;20074;-58
2022/04/28 00:43:53;;;;;;;19.48;10.13;;;13.90;65.00;;;;;;5077823;28;20021;-58
2022/04/28 00:46:21;;;;;;;15.90;8.95;;;13.90;65.50;;;;;;5077742;28;20021;-58
2022/04/28 00:51:34;;;;;;;18.00;10.38;;;13.80;66.20;;;;;;5077795;28;20071;-59
2022/04/28 00:54:02;;;;;;;14.88;9.15;;;13.90;65.70;;;;;;5077662;28;20100;-58
2022/04/28 00:56:30;;;;;;;18.70;10.77;;;13.80;65.20;;;;;;5077169;28;20053;-58
2022/04/28 00:58:58;;;;;;;16.23;9.52;;;13.80;66.10;;;;;;5078540;28;20518;-58
2022/04/28 01:01:24;;;;;;;19.83;10.50;;;13.70;66.80;;;;;;5081561;28;20035;-58
2022/04/28 01:03:50;;;;;;;16.77;9.82;;;13.70;66.40;;;;;;5081615;28;20033;-58
2022/04/28 01:06:16;;;;;;;14.73;9.40;;;13.80;66.60;;;;;;5081637;28;20020;-58
2022/04/28 01:08:42;;;;;;;16.23;10.15;;;13.70;65.40;;;;;;5081673;28;20024;-58
2022/04/28 01:11:08;;;;;;;15.55;9.63;;;13.70;65.80;;;;;;5081633;28;20024;-58
2022/04/28 01:13:34;;;;;;;17.55;9.48;;;13.70;66.50;;;;;;5081139;28;20488;-58
2022/04/28 01:16:00;;;;;;;18.98;10.13;;;13.70;66.10;;;;;;5081509;28;20095;-58
2022/04/28 01:18:26;;;;;;;15.57;9.75;;;13.70;65.30;;;;;;5081054;28;20032;-58
2022/04/28 01:20:52;;;;;;;13.90;9.77;;;13.70;65.40;;;;;;5081369;28;20035;-58
2022/04/28 01:23:18;;;;;;;18.73;10.32;;;13.70;67.30;;;;;;5080956;28;20056;-58
2022/04/28 01:25:44;;;;;;;15.75;10.32;;;13.70;66.10;;;;;;5081390;28;20028;-58
2022/04/28 01:28:10;;;;;;;16.73;10.13;;;13.70;66.10;;;;;;5081119;28;20032;-58
2022/04/28 01:30:37;;;;;;;14.15;9.48;;;13.70;65.80;;;;;;5081193;28;20021;-58
2022/04/28 01:33:04;;;;;;;17.90;10.48;;;13.70;67.30;;;;;;5081003;28;20024;-58
2022/04/28 01:35:30;;;;;;;15.57;9.70;;;13.70;66.70;;;;;;5081156;28;20021;-58
2022/04/28 01:37:57;;;;;;;17.20;10.75;;;13.70;67.30;;;;;;5081114;28;20457;-58
2022/04/28 01:40:23;;;;;;;14.43;9.13;;;13.70;65.50;;;;;;5081005;28;20032;-58
2022/04/28 01:42:50;;;;;;;15.98;10.65;;;13.70;65.80;;;;;;5080779;28;20052;-58
2022/04/28 01:45:16;;;;;;;18.73;11.18;;;13.60;65.50;;;;;;5080671;28;20137;-58
2022/04/28 01:47:42;;;;;;;15.60;10.68;;;13.60;66.20;;;;;;5080641;28;20070;-58
2022/04/28 01:50:12;;;;;;;16.77;10.75;;;13.60;65.30;;;;;;5080680;28;20087;-58
2022/04/28 01:55:24;;;;;;;16.70;10.93;;;13.50;65.90;;;;;;5080664;28;20063;-57
2022/04/28 01:57:51;;;;;;;16.73;10.27;;;13.60;66.70;;;;;;5080761;28;20028;-58
2022/04/28 02:00:17;;;;;;;16.00;10.60;;;13.60;66.90;;;;;;5080449;28;20098;-58
2022/04/28 02:02:43;;;;;;;13.75;10.10;;;13.50;65.80;;;;;;5080471;28;20021;-58
2022/04/28 02:05:11;;;;;;;15.70;10.43;;;13.50;67.30;;;;;;5080589;28;20031;-58
2022/04/28 02:07:37;;;;;;;17.50;10.50;;;13.50;66.10;;;;;;5080352;28;20024;-58
2022/04/28 02:10:05;;;;;;;17.90;10.93;;;13.50;67.60;;;;;;5079425;28;20017;-58
2022/04/28 02:12:30;;;;;;;17.30;11.05;;;13.50;66.60;;;;;;5080293;28;20090;-58
2022/04/28 02:14:57;;;;;;;17.30;10.30;;;13.50;66.70;;;;;;5080402;28;20025;-58
2022/04/28 02:17:25;;;;;;;15.23;10.88;;;13.50;67.60;;;;;;5080206;28;20024;-58
2022/04/28 02:19:51;;;;;;;15.73;10.27;;;13.50;67.00;;;;;;5080119;28;20052;-58
2022/04/28 02:22:18;;;;;;;15.50;10.27;;;13.50;66.00;;;;;;5080535;28;20037;-58
2022/04/28 02:24:44;;;;;;;16.92;10.18;;;13.50;67.60;;;;;;5080124;28;20027;-58
2022/04/28 02:27:10;;;;;;;16.67;11.10;;;13.50;66.00;;;;;;5080203;28;20029;-58
2022/04/28 02:29:36;;;;;;;15.80;10.35;;;13.50;65.70;;;;;;5080014;28;20079;-57
2022/04/28 02:32:02;;;;;;;19.33;12.20;;;13.50;66.40;;;;;;5080287;28;20028;-58
2022/04/28 02:34:28;;;;;;;14.95;10.40;;;13.50;66.20;;;;;;5079953;28;20052;-58
2022/04/28 02:36:54;;;;;;;19.95;11.68;;;13.40;66.20;;;;;;5079836;28;20025;-58
2022/04/28 02:39:20;;;;;;;15.88;10.55;;;13.40;65.80;;;;;;5079804;28;20056;-58
2022/04/28 02:41:46;;;;;;;17.45;11.75;;;13.50;66.20;;;;;;5080112;28;20024;-58
2022/04/28 02:44:13;;;;;;;15.07;11.30;;;13.40;66.00;;;;;;5079877;28;20020;-58
2022/04/28 02:46:40;;;;;;;15.00;10.88;;;13.50;66.70;;;;;;5079879;28;20503;-58
2022/04/28 02:49:06;;;;;;;15.05;11.40;;;13.50;66.80;;;;;;5079417;28;20033;-58
2022/04/28 02:51:32;;;;;;;15.15;11.32;;;13.50;66.90;;;;;;5079554;28;20377;-58
2022/04/28 02:53:57;;;;;;;13.73;10.52;;;13.50;66.00;;;;;;5079540;28;20074;-58
2022/04/28 02:56:25;;;;;;;14.85;10.73;;;13.50;66.90;;;;;;5079078;28;20048;-58
2022/04/28 02:58:52;;;;;;;15.80;10.93;;;13.50;67.10;;;;;;5079443;28;20029;-58
2022/04/28 03:01:18;;;;;;;17.27;12.30;;;13.50;66.30;;;;;;5079251;28;20392;-58
2022/04/28 03:03:43;;;;;;;17.38;11.27;;;13.50;66.30;;;;;;5079474;28;20025;-58
2022/04/28 03:11:38;;;;;;;17.00;12.50;;;13.60;66.20;;;;;;5079445;28;20047;-58
2022/04/28 03:14:04;;;;;;;17.42;11.68;;;13.60;66.50;;;;;;5078920;28;20016;-58
2022/04/28 03:16:30;;;;;;;17.98;12.40;;;13.60;66.50;;;;;;5079039;28;20024;-58
2022/04/28 03:18:56;;;;;;;17.33;12.68;;;13.60;65.50;;;;;;5079166;28;20090;-58
2022/04/28 03:21:22;;;;;;;20.25;12.15;;;13.60;65.50;;;;;;5078631;28;20395;-58
2022/04/28 03:23:48;;;;;;;16.10;11.93;;;13.60;65.90;;;;;;5079032;28;20057;-58
2022/04/28 03:26:14;;;;;;;16.35;11.55;;;13.50;66.30;;;;;;5078775;28;20058;-58
2022/04/28 03:28:40;;;;;;;19.05;12.90;;;13.50;66.20;;;;;;5078794;28;20016;-58
2022/04/28 03:31:06;;;;;;;17.75;13.13;;;13.50;65.70;;;;;;5078979;28;20088;-58
2022/04/28 03:33:32;;;;;;;16.48;11.43;;;13.50;65.50;;;;;;5078876;28;20101;-58
2022/04/28 03:35:58;;;;;;;18.88;12.23;;;13.50;65.50;;;;;;5078917;28;20056;-58
2022/04/28 03:38:24;;;;;;;18.40;12.80;;;13.50;66.10;;;;;;5078584;28;20106;-58
2022/04/28 03:40:51;;;;;;;16.67;11.98;;;13.50;65.10;;;;;;5077110;28;20025;-58
2022/04/28 03:43:17;;;;;;;15.40;11.27;;;13.50;65.80;;;;;;5078442;28;20020;-58
2022/04/28 03:45:44;;;;;;;17.40;12.60;;;13.50;65.20;;;;;;5078621;28;20032;-58
2022/04/28 03:48:10;;;;;;;20.38;13.13;;;13.50;65.60;;;;;;5078615;28;20020;-58
2022/04/28 03:50:37;;;;;;;18.23;13.57;;;13.50;65.30;;;;;;5078441;28;20024;-58
2022/04/28 03:53:03;;;;;;;18.50;13.10;;;13.40;66.00;;;;;;5078492;28;20020;-57
2022/04/28 03:55:30;;;;;;;17.75;12.77;;;13.40;65.60;;;;;;5078111;28;20053;-58
2022/04/28 03:57:55;;;;;;;19.83;13.02;;;13.40;66.30;;;;;;5076961;28;20492;-58
2022/04/28 04:00:22;;;;;;;15.88;12.05;;;13.40;64.80;;;;;;5078641;28;20047;-58
2022/04/28 04:02:48;;;;;;;20.13;12.32;;;13.40;65.90;;;;;;5078082;28;20489;-58
2022/04/28 04:05:15;;;;;;;19.33;12.65;;;13.30;65.60;;;;;;5077866;28;20503;-58
2022/04/28 04:07:43;;;;;;;17.60;12.15;;;13.40;66.30;;;;;;5078058;28;20074;-58
2022/04/28 04:10:13;;;;;;;20.40;13.70;;;13.40;66.40;;;;;;5078238;28;20388;-58
2022/04/28 04:12:39;;;;;;;18.92;12.45;;;13.40;64.90;;;;;;5078226;28;20021;-58
2022/04/28 04:15:06;;;;;;;20.55;13.38;;;13.40;65.00;;;;;;5078194;28;20033;-58
2022/04/28 04:17:42;;;;;;;16.38;12.52;;;13.30;65.40;;;;;;5077863;28;20016;-58
2022/04/28 04:20:09;;;;;;;17.38;13.45;;;13.30;65.70;;;;;;5077936;28;20029;-58
2022/04/28 04:22:36;;;;;;;17.02;12.63;;;13.30;65.40;;;;;;5078039;28;20021;-58
2022/04/28 04:25:03;;;;;;;18.88;12.73;;;13.30;65.40;;;;;;5077966;28;20047;-58
2022/04/28 04:27:29;;;;;;;17.33;12.77;;;13.30;66.30;;;;;;5078014;28;20055;-58
2022/04/28 04:29:55;;;;;;;21.15;14.63;;;13.30;65.20;;;;;;5077731;28;20384;-58
2022/04/28 04:32:25;;;;;;;17.83;12.40;;;13.30;65.50;;;;;;5078264;28;20017;-58
2022/04/28 04:34:52;;;;;;;18.75;12.35;;;13.30;65.40;;;;;;5077260;28;20035;-58
2022/04/28 04:37:18;;;;;;;17.95;13.00;;;13.30;66.00;;;;;;5077985;28;20025;-58
2022/04/28 04:39:44;;;;;;;19.17;13.45;;;13.30;66.00;;;;;;5077698;28;20024;-58
2022/04/28 04:42:10;;;;;;;18.13;13.48;;;13.30;65.60;;;;;;5077778;28;20100;-58
2022/04/28 04:44:36;;;;;;;18.50;13.95;;;13.30;66.00;;;;;;5077566;28;20494;-58
2022/04/28 04:47:03;;;;;;;17.50;13.85;;;13.30;66.10;;;;;;5077713;28;20025;-58
2022/04/28 04:49:29;;;;;;;18.73;12.85;;;13.30;65.80;;;;;;5077976;28;20051;-58
2022/04/28 04:51:55;;;;;;;19.60;14.32;;;13.30;65.50;;;;;;5077415;28;20017;-58
2022/04/28 04:54:21;;;;;;;19.20;12.93;;;13.30;66.10;;;;;;5077528;28;20040;-58
2022/04/28 04:56:47;;;;;;;17.40;13.70;;;13.30;65.40;;;;;;5077250;28;20508;-58
2022/04/28 04:59:13;;;;;;;18.00;12.82;;;13.30;65.00;;;;;;5077751;28;20107;-58
2022/04/28 05:01:39;;;;;;;16.75;12.57;;;13.30;65.50;;;;;;5076987;28;20021;-58
2022/04/28 05:04:05;;;;;;;22.50;14.52;;;13.30;65.30;;;;;;5076144;28;20115;-58
2022/04/28 05:06:30;;;;;;;18.92;13.00;;;13.30;65.60;;;;;;5077578;28;20024;-58
2022/04/28 05:08:57;;;;;;;17.58;12.77;;;13.30;66.20;;;;;;5077243;28;20028;-58
2022/04/28 05:11:23;;;;;;;20.00;12.75;;;13.30;65.60;;;;;;5077410;28;20027;-59
2022/04/28 05:13:49;;;;;;;20.15;13.52;;;13.30;65.60;;;;;;5077399;28;20105;-58
2022/04/28 05:16:14;;;;;;;18.63;14.13;;;13.30;65.50;;;;;;5077289;28;20028;-58
2022/04/28 05:18:40;;;;;;;16.55;13.27;;;13.30;65.90;;;;;;5077553;28;20111;-58
2022/04/28 05:21:06;;;;;;;17.38;12.98;;;13.30;66.50;;;;;;5077501;28;20103;-59
2022/04/28 05:23:32;;;;;;;21.88;13.85;;;13.30;66.20;;;;;;5075812;28;20032;-58
2022/04/28 05:25:57;;;;;;;18.63;13.57;;;13.30;66.30;;;;;;5077368;28;20031;-58
2022/04/28 05:28:30;;;;;;;21.65;13.70;;;13.30;65.80;;;;;;5077492;28;20476;-58
2022/04/28 05:30:56;;;;;;;19.95;14.32;;;13.30;65.40;;;;;;5077576;28;20032;-58
2022/04/28 05:33:22;;;;;;;20.55;14.43;;;13.30;65.60;;;;;;5077224;28;20483;-58
2022/04/28 05:35:48;;;;;;;17.75;12.68;;;13.30;65.10;;;;;;5077323;28;20035;-58
2022/04/28 05:38:14;;;;;;;19.17;13.32;;;13.30;65.70;;;;;;5077124;28;20035;-58
2022/04/28 05:40:41;;;;;;;18.17;12.90;;;13.30;66.00;;;;;;5076966;28;20029;-58
2022/04/28 05:45:53;;;;;;;18.80;14.10;;;13.30;65.90;;;;;;5079857;28;20082;-58
2022/04/28 05:48:20;;;;;;;17.98;13.88;;;13.30;65.40;;;;;;5080663;28;20491;-58
2022/04/28 05:50:46;;;;;;;19.58;13.68;;;13.30;65.80;;;;;;5080890;28;20025;-58
2022/04/28 05:53:13;;;;;;;20.10;13.48;;;13.30;65.10;;;;;;5080531;28;20028;-58
2022/04/28 05:55:39;;;;;;;16.77;12.27;;;13.20;65.80;;;;;;5080280;28;20052;-58
2022/04/28 05:58:05;;;;;;;18.70;13.13;;;13.20;66.20;;;;;;5080757;28;20032;-59
2022/04/28 06:00:32;;;;;;;18.45;14.23;;;13.30;65.30;;;;;;5080659;28;20028;-58
2022/04/28 06:02:58;;;;;;;18.58;13.77;;;13.20;66.10;;;;;;5080677;28;20025;-58
2022/04/28 06:05:24;;;;;;;17.17;12.88;;;13.20;65.70;;;;;;5080590;28;20376;-58
2022/04/28 06:07:51;;;;;;;17.77;13.73;;;13.20;65.60;;;;;;5080593;28;20027;-58
2022/04/28 06:10:16;;;;;;;18.90;12.77;;;13.20;65.90;;;;;;5080317;28;20016;-58
2022/04/28 06:12:43;;;;;;;18.10;13.82;;;13.30;65.90;;;;;;5080281;28;20024;-58
2022/04/28 06:15:09;;;;;;;18.52;13.75;;;13.30;66.40;;;;;;5080439;28;20166;-58
2022/04/28 06:17:35;;;;;;;18.02;12.95;;;13.30;65.60;;;;;;5080195;28;20029;-58
2022/04/28 06:20:01;;;;;;;19.90;13.73;;;13.30;65.60;;;;;;5080445;28;20036;-58
2022/04/28 06:22:27;;;;;;;19.73;13.73;;;13.30;65.80;;;;;;5080052;28;20487;-58
2022/04/28 06:24:54;;;;;;;18.88;14.25;;;13.30;65.60;;;;;;5079782;28;20025;-58
2022/04/28 06:27:20;;;;;;;17.35;13.43;;;13.30;66.00;;;;;;5080042;28;20023;-58
2022/04/28 06:29:48;;;;;;;18.77;13.88;;;13.30;65.70;;;;;;5080065;28;20021;-58
2022/04/28 06:32:16;;;;;;;16.30;12.25;;;13.40;65.30;;;;;;5080137;28;20088;-58
2022/04/28 06:34:43;;;;;;;21.55;14.63;;;13.40;65.80;;;;;;5079842;28;20032;-58
2022/04/28 06:37:09;;;;;;;19.00;14.00;;;13.40;65.30;;;;;;5078573;28;20032;-58
2022/04/28 06:39:35;;;;;;;19.17;13.52;;;13.50;65.20;;;;;;5079998;28;20116;-58
2022/04/28 06:42:00;;;;;;;19.00;13.20;;;13.50;65.60;;;;;;5079745;28;20064;-58
2022/04/28 06:44:26;;;;;;;18.80;14.10;;;13.50;65.60;;;;;;5079987;28;20028;-58
2022/04/28 06:46:52;;;;;;;20.55;13.93;;;13.50;65.60;;;;;;5079873;28;20031;-57
2022/04/28 06:49:18;;;;;;;22.25;13.32;;;13.50;65.50;;;;;;5079432;28;20056;-58
2022/04/28 06:51:44;;;;;;;17.88;14.05;;;13.60;65.50;;;;;;5079774;28;20027;-57
2022/04/28 06:54:09;;;;;;;18.63;14.45;;;13.60;65.40;;;;;;5079964;28;20027;-58
2022/04/28 06:56:35;;;;;;;17.52;13.50;;;13.70;65.20;;;;;;5078513;28;20045;-57
2022/04/28 06:59:01;;;;;;;18.23;14.05;;;13.70;65.00;;;;;;5079712;28;20060;-58
2022/04/28 07:01:27;;;;;;;20.00;13.48;;;13.70;65.10;;;;;;5079363;28;20028;-58
2022/04/28 07:03:53;;;;;;;18.23;12.75;;;13.70;65.20;;;;;;5079139;28;20571;-58
2022/04/28 07:06:19;;;;;;;18.30;13.93;;;13.80;65.50;;;;;;5079197;28;20040;-58
2022/04/28 07:08:45;;;;;;;19.23;14.73;;;13.80;65.80;;;;;;5079202;28;20028;-58
2022/04/28 07:11:10;;;;;;;19.85;14.63;;;13.80;64.70;;;;;;5079566;28;20024;-58
2022/04/28 07:13:37;;;;;;;19.17;13.32;;;13.90;65.10;;;;;;5079597;28;20066;-58
2022/04/28 07:16:04;;;;;;;18.52;13.32;;;13.90;64.90;;;;;;5079025;28;20020;-58
2022/04/28 07:18:30;;;;;;;20.20;12.98;;;13.90;65.00;;;;;;5079056;28;20025;-58
2022/04/28 07:20:55;;;;;;;21.88;14.65;;;13.90;64.80;;;;;;5079162;28;20116;-59
2022/04/28 07:23:21;;;;;;;19.52;14.18;;;13.90;65.40;;;;;;5078948;28;20033;-58
2022/04/28 07:25:47;;;;;;;17.85;13.02;;;14.00;64.80;;;;;;5079164;28;20032;-58
2022/04/28 07:28:14;;;;;;;18.92;14.60;;;14.00;65.00;;;;;;5079045;28;20429;-57
2022/04/28 07:30:40;;;;;;;19.38;13.93;;;14.10;64.80;;;;;;5078942;28;20044;-58
2022/04/28 07:33:08;;;;;;;19.30;14.02;;;14.10;64.80;;;;;;5078927;28;20020;-58
2022/04/28 07:35:34;;;;;;;17.17;12.90;;;14.10;65.30;;;;;;5078585;28;20189;-57
2022/04/28 07:38:00;;;;;;;19.05;14.07;;;14.20;64.90;;;;;;5078867;28;20032;-58
2022/04/28 07:40:26;;;;;;;17.83;13.13;;;14.30;64.40;;;;;;5078551;28;20491;-58
2022/04/28 07:42:53;;;;;;;18.30;13.77;;;14.20;64.40;;;;;;5078879;28;20056;-58
2022/04/28 07:45:19;;;;;;;19.17;13.68;;;14.30;64.30;;;;;;5078650;28;20950;-59
2022/04/28 07:47:45;;;;;;;18.13;13.70;;;14.30;64.70;;;;;;5078623;28;20096;-58
2022/04/28 07:50:11;;;;;;;20.08;14.25;;;14.30;64.60;;;;;;5078924;28;20052;-58
2022/04/28 07:52:38;;;;;;;18.50;13.30;;;14.30;64.50;;;;;;5078404;28;20070;-58
2022/04/28 07:55:05;;;;;;;18.10;13.05;;;14.30;64.50;;;;;;5078756;28;20132;-58
2022/04/28 07:57:32;;;;;;;17.67;13.15;;;14.30;64.30;;;;;;5078249;28;20123;-58
2022/04/28 07:59:58;;;;;;;19.20;13.45;;;14.30;64.30;;;;;;5078249;28;20029;-58
2022/04/28 08:02:24;;;;;;;15.65;13.40;;;14.30;64.40;;;;;;5078427;28;20480;-58
2022/04/28 08:04:49;;;;;;;17.60;13.82;;;14.30;64.30;;;;;;5078494;28;20052;-58
2022/04/28 08:07:15;;;;;;;19.30;13.82;;;14.30;64.30;;;;;;5078485;28;20483;-58
2022/04/28 08:09:41;;;;;;;18.80;13.77;;;14.30;64.20;;;;;;5077094;28;20028;-58
2022/04/28 08:12:07;;;;;;;19.23;14.63;;;14.40;64.60;;;;;;5078037;28;20104;-58
2022/04/28 08:14:33;;;;;;;17.80;13.20;;;14.50;64.80;;;;;;5076690;28;20021;-58
2022/04/28 08:16:59;;;;;;;18.00;13.80;;;14.50;64.60;;;;;;5078142;28;20051;-58
2022/04/28 08:19:25;;;;;;;18.40;14.65;;;14.50;64.50;;;;;;5078309;28;20024;-58
2022/04/28 08:21:51;;;;;;;16.92;13.73;;;14.60;64.50;;;;;;5078086;28;20081;-58
2022/04/28 08:24:17;;;;;;;16.05;12.90;;;14.60;64.60;;;;;;5077969;28;20046;-58
2022/04/28 08:26:43;;;;;;;17.27;12.55;;;14.70;64.50;;;;;;5077739;28;20031;-58
2022/04/28 08:29:09;;;;;;;16.40;11.98;;;14.80;64.90;;;;;;5078302;28;20031;-58
2022/04/28 08:31:43;;;;;;;16.95;13.45;;;14.80;64.10;;;;;;5077952;28;20048;-57
2022/04/28 08:34:10;;;;;;;19.88;13.50;;;14.80;64.30;;;;;;5077877;28;20024;-58
2022/04/28 08:36:36;;;;;;;18.33;12.98;;;14.90;63.70;;;;;;5077725;28;20037;-58
2022/04/28 08:39:02;;;;;;;16.73;12.32;;;14.90;63.90;;;;;;5078154;28;20083;-58
2022/04/28 08:41:32;;;;;;;18.13;13.70;;;14.80;64.10;;;;;;5077701;28;20024;-58
2022/04/28 08:44:00;;;;;;;18.00;12.73;;;14.90;63.80;;;;;;5077904;28;20021;-58
2022/04/28 08:49:12;;;;;;;16.52;12.80;;;14.80;64.20;;;;;;5077716;28;20044;-58
2022/04/28 08:51:39;;;;;;;19.80;13.32;;;14.70;63.90;;;;;;5077836;28;20029;-58
2022/04/28 08:54:05;;;;;;;17.83;13.57;;;14.70;64.20;;;;;;5077554;28;20023;-58
2022/04/28 08:56:31;;;;;;;18.58;13.85;;;14.70;64.10;;;;;;5077958;28;20052;-58
2022/04/28 08:58:57;;;;;;;17.10;13.20;;;14.70;64.10;;;;;;5078014;28;20372;-58
2022/04/28 09:01:27;;;;;;;18.23;13.93;;;14.70;64.10;;;;;;5077759;28;20107;-58
2022/04/28 09:04:01;;;;;;;20.08;13.55;;;14.70;64.00;;;;;;5077512;28;20028;-59
2022/04/28 09:06:30;;;;;;;17.23;12.95;;;14.70;64.20;;;;;;5077618;28;20138;-58
2022/04/28 09:08:57;;;;;;;18.77;14.55;;;14.70;64.30;;;;;;5077664;28;20032;-58
2022/04/28 09:11:25;;;;;;;18.33;14.07;;;14.80;64.40;;;;;;5077421;28;20032;-58
2022/04/28 09:14:09;;;;;;;17.83;13.45;;;14.80;64.30;;;;;;5077320;28;20560;-58
2022/04/28 09:16:43;;;;;;;18.07;14.27;;;14.70;64.50;;;;;;5077618;28;20041;-58
2022/04/28 09:19:23;;;;;;;17.20;13.03;;;14.80;64.30;;;;;;5077842;28;20074;-58
2022/04/28 09:21:51;;;;;;;18.75;13.10;;;14.80;64.60;;;;;;5080739;28;20066;-58
2022/04/28 09:24:17;;;;;;;17.75;12.80;;;14.90;64.60;;;;;;5081170;28;20028;-58
2022/04/28 09:26:43;;;;;;;17.92;13.25;;;14.90;64.30;;;;;;5081064;28;20029;-58
2022/04/28 09:29:14;;;;;;;18.77;13.43;;;14.90;64.50;;;;;;5081329;28;20581;-58
2022/04/28 09:31:41;;;;;;;20.23;13.88;;;14.90;64.30;;;;;;5081084;28;20025;-58
2022/04/28 09:34:15;;;;;;;15.13;13.00;;;14.90;64.00;;;;;;5081076;28;20086;-58
2022/04/28 09:36:43;;;;;;;18.33;15.15;;;14.90;64.70;;;;;;5081412;28;20032;-57
2022/04/28 09:42:29;;;;;;;18.10;14.68;;;14.90;64.40;;;;;;5081135;28;20086;-58
2022/04/28 09:44:45;;;;;;;16.67;12.70;;;15.00;64.50;;;;;;5080578;28;20036;-58
2022/04/28 09:47:11;;;;;;;17.48;12.52;;;15.00;64.50;;;;;;5080979;28;20388;-58
2022/04/28 09:49:37;;;;;;;19.25;13.88;;;15.00;64.40;;;;;;5080979;28;20020;-57
2022/04/28 09:52:03;;;;;;;20.25;13.13;;;15.10;64.40;;;;;;5080849;28;20029;-58
2022/04/28 09:54:35;;;;;;;18.17;13.40;;;15.10;64.50;;;;;;5080654;28;20052;-58
2022/04/28 09:57:02;;;;;;;17.00;12.55;;;15.10;64.50;;;;;;5080658;28;20017;-59
2022/04/28 09:59:29;;;;;;;18.00;13.05;;;15.10;64.50;;;;;;5080378;28;20135;-58
2022/04/28 10:01:57;;;;;;;19.15;12.85;;;15.10;64.50;;;;;;5080499;28;20020;-58
2022/04/28 10:04:23;;;;;;;17.13;12.15;;;15.20;64.50;;;;;;5080469;28;20021;-58
2022/04/28 10:06:49;;;;;;;17.70;12.20;;;15.20;64.60;;;;;;5080308;28;20481;-59
2022/04/28 10:09:17;;;;;;;17.55;13.32;;;15.20;64.70;;;;;;5080627;28;20357;-58
2022/04/28 10:11:46;;;;;;;18.83;12.65;;;15.30;64.50;;;;;;5080289;28;20476;-58
2022/04/28 10:14:13;;;;;;;16.48;13.27;;;15.30;64.20;;;;;;5080522;28;20052;-58
2022/04/28 10:16:42;;;;;;;19.50;12.93;;;15.30;64.20;;;;;;5080241;28;20082;-58
2022/04/28 10:19:21;;;;;;;16.77;12.13;;;15.30;64.50;;;;;;5080126;28;20032;-58
2022/04/28 10:21:49;;;;;;;17.00;12.57;;;15.30;64.20;;;;;;5080347;28;20361;-58
2022/04/28 10:32:56;;;;;;;18.45;14.25;;;15.70;64.20;;;;;;5079134;28;20031;-58
2022/04/28 10:35:53;;;;;;;18.02;12.82;;;15.90;64.50;;;;;;5079817;28;20473;-58
2022/04/28 10:38:38;;;;;;;18.85;13.55;;;16.00;64.40;;;;;;5075445;28;20033;-58
2022/04/28 10:41:07;;;;;;;18.17;14.15;;;16.30;64.50;;;;;;5079840;28;20056;-58
2022/04/28 10:43:33;;;;;;;18.75;14.50;;;16.50;63.30;;;;;;5079747;28;20024;-58
2022/04/28 10:46:22;;;;;;;20.77;14.40;;;16.60;63.00;;;;;;5079809;28;20389;-58
2022/04/28 10:48:53;;;;;;;18.55;13.23;;;16.70;63.00;;;;;;5079598;28;20019;-58
2022/04/28 10:51:25;;;;;;;20.92;14.85;;;16.80;63.60;;;;;;5079648;28;20025;-58
2022/04/28 10:54:19;;;;;;;18.83;13.00;;;17.00;63.50;;;;;;5079826;28;20377;-58
2022/04/28 10:56:54;;;;;;;17.13;13.77;;;17.30;62.90;;;;;;5077549;28;20508;-58
2022/04/28 10:59:26;;;;;;;18.67;12.95;;;17.50;62.80;;;;;;5079613;28;20024;-58
2022/04/28 11:01:52;;;;;;;15.52;12.55;;;17.60;62.30;;;;;;5079592;28;20036;-58
2022/04/28 11:04:23;;;;;;;17.77;12.35;;;17.80;62.70;;;;;;5077945;28;20017;-58
2022/04/28 11:06:55;;;;;;;15.70;12.00;;;17.90;62.30;;;;;;5079246;28;20025;-58
2022/04/28 11:09:35;;;;;;;17.50;12.50;;;18.00;61.40;;;;;;5079184;28;20017;-59
2022/04/28 11:12:18;;;;;;;16.27;12.52;;;18.00;61.90;;;;;;5079420;28;20024;-58
2022/04/28 11:14:46;;;;;;;18.73;12.00;;;18.10;61.20;;;;;;5079154;28;20449;-58
2022/04/28 11:17:14;;;;;;;19.13;14.27;;;18.10;61.70;;;;;;5079272;28;20021;-58
2022/04/28 11:19:46;;;;;;;18.92;12.48;;;18.20;62.20;;;;;;5079311;28;20372;-59
2022/04/28 11:22:12;;;;;;;15.55;11.85;;;18.40;62.30;;;;;;5079184;28;20032;-59
2022/04/28 11:24:44;;;;;;;15.55;12.57;;;18.60;61.20;;;;;;5079223;28;20021;-58
2022/04/28 11:27:21;;;;;;;18.58;11.40;;;18.80;61.30;;;;;;5079046;28;20519;-58
2022/04/28 11:29:50;;;;;;;14.48;11.95;;;18.80;60.30;;;;;;5078920;28;20028;-59
2022/04/28 11:32:17;;;;;;;17.67;11.73;;;18.90;59.90;;;;;;5078751;28;20021;-58
2022/04/28 11:34:44;;;;;;;15.80;12.10;;;18.90;60.50;;;;;;5078965;28;20070;-58
2022/04/28 11:37:15;;;;;;;15.18;11.85;;;19.00;57.90;;;;;;5077385;28;20028;-59
2022/04/28 11:39:46;;;;;;;13.93;11.00;;;19.00;59.30;;;;;;5078468;28;20082;-59
2022/04/28 11:42:13;;;;;;;14.52;11.00;;;19.10;60.60;;;;;;5079283;28;20108;-59
2022/04/28 11:44:52;;;;;;;14.00;10.77;;;19.30;57.20;;;;;;5078399;28;20024;-59
2022/04/28 11:47:18;;;;;;;13.48;10.70;;;19.40;59.90;;;;;;5078750;28;20024;-58
2022/04/28 11:49:45;;;;;;;14.15;11.05;;;19.70;59.40;;;;;;5078460;28;20039;-59
2022/04/28 11:52:20;;;;;;;15.20;10.40;;;19.90;57.50;;;;;;5078661;28;20024;-59
2022/04/28 11:55:11;;;;;;;12.35;9.32;;;20.20;56.70;;;;;;5078175;28;20048;-59
2022/04/28 11:57:39;;;;;;;12.93;10.32;;;20.40;56.90;;;;;;5078488;28;20028;-58
2022/04/28 12:00:07;;;;;;;12.23;9.30;;;20.80;53.40;;;;;;5078735;28;20025;-58
2022/04/28 12:02:36;;;;;;;13.63;9.38;;;21.20;53.60;;;;;;5078126;28;20481;-59
2022/04/28 12:05:19;;;;;;;14.75;10.23;;;21.50;52.90;;;;;;5078091;28;20104;-58
2022/04/28 12:07:53;;;;;;;11.30;8.60;;;21.60;50.80;;;;;;5078179;28;20029;-58
2022/04/28 12:15:56;;;;;;;11.65;9.07;;;21.10;49.00;;;;;;5078447;28;20216;-59
2022/04/28 12:21:25;;;;;;;13.13;9.05;;;20.70;51.90;;;;;;5077845;28;20032;-59
2022/04/28 12:23:58;;;;;;;11.20;8.60;;;20.70;52.50;;;;;;5078384;28;20028;-59
2022/04/28 12:26:25;;;;;;;11.30;8.80;;;21.00;52.50;;;;;;5077606;28;20029;-59
2022/04/28 12:28:54;;;;;;;11.75;9.02;;;21.20;50.10;;;;;;5078098;28;20039;-59
2022/04/28 12:31:32;;;;;;;11.15;8.32;;;21.10;51.30;;;;;;5076546;28;20080;-59
2022/04/28 12:33:59;;;;;;;10.77;8.27;;;20.90;51.30;;;;;;5078142;28;20027;-59
2022/04/28 12:36:25;;;;;;;11.20;8.25;;;20.70;49.00;;;;;;5077949;28;20035;-59
2022/04/28 12:38:53;;;;;;;11.07;8.57;;;20.60;50.90;;;;;;5077225;28;20107;-59
2022/04/28 12:41:24;;;;;;;10.73;8.07;;;20.50;50.40;;;;;;5077190;28;20388;-59
2022/04/28 12:43:52;;;;;;;13.52;8.23;;;20.40;49.30;;;;;;5077565;28;20027;-59
2022/04/28 12:46:34;;;;;;;10.45;7.75;;;20.20;50.80;;;;;;5077361;28;20107;-59
2022/04/28 12:49:05;;;;;;;13.10;7.90;;;20.20;50.30;;;;;;5077329;28;20024;-59
2022/04/28 12:51:44;;;;;;;11.52;8.20;;;20.10;50.90;;;;;;5077170;28;20020;-59
2022/04/28 12:54:10;;;;;;;13.40;9.57;;;20.10;51.20;;;;;;5078153;28;20024;-59
2022/04/28 12:56:37;;;;;;;11.93;8.82;;;20.20;51.70;;;;;;5083373;28;20496;-59
2022/04/28 12:59:09;;;;;;;12.05;8.50;;;20.20;51.20;;;;;;5083548;28;20479;-59
2022/04/28 13:01:40;;;;;;;11.98;8.98;;;20.30;52.30;;;;;;5083874;28;20031;-59
2022/04/28 13:04:17;;;;;;;12.93;8.20;;;20.40;51.40;;;;;;5082953;28;20486;-58
2022/04/28 13:06:44;;;;;;;10.90;8.50;;;20.50;51.40;;;;;;5082620;28;20053;-59